Time;durP1;ratioP1;P1;durP2;ratioP2;P2;SDS_P1;SDS_P2;PMS_P1;PMS_P2;Temp;Humidity;BMP_temperature;BMP_pressure;BME280_temperature;BME280_humidity;BME280_pressure;Samples;Min_cycle;Max_cycle;Signal;HPM_P1;HPM_P2
2023/02/28 17:27:38;;;;;;;3.97;2.30;;;3.50;69.30;;;;;;5048772;28;21004;-67
2023/02/28 17:30:16;;;;;;;3.45;2.50;;;3.40;71.80;;;;;;5048158;28;20033;-68
2023/02/28 17:32:43;;;;;;;6.05;3.33;;;3.40;74.40;;;;;;5052737;28;20463;-69
2023/02/28 17:35:08;;;;;;;7.70;3.50;;;3.40;76.00;;;;;;5046951;28;20112;-69
2023/02/28 17:37:34;;;;;;;4.97;3.13;;;3.40;76.60;;;;;;5047528;28;20453;-67
2023/02/28 17:40:00;;;;;;;4.43;2.70;;;3.50;77.20;;;;;;5046965;28;20031;-68
2023/02/28 17:42:26;;;;;;;3.50;2.38;;;3.40;77.70;;;;;;5062522;28;20033;-67
2023/02/28 17:44:51;;;;;;;5.40;2.50;;;3.50;78.20;;;;;;5047738;28;20013;-68
2023/02/28 17:47:17;;;;;;;4.03;2.30;;;3.40;78.60;;;;;;5046008;28;20519;-68
2023/02/28 17:49:42;;;;;;;2.70;1.88;;;3.40;78.90;;;;;;5047141;28;20033;-66
2023/02/28 17:52:08;;;;;;;2.22;1.73;;;3.40;79.40;;;;;;5046403;28;20469;-63
2023/02/28 17:54:34;;;;;;;2.20;1.50;;;3.40;79.20;;;;;;5047594;28;20026;-66
2023/02/28 17:57:00;;;;;;;3.08;2.00;;;3.40;79.80;;;;;;5047236;28;20389;-66
2023/02/28 17:59:32;;;;;;;4.50;1.75;;;3.40;80.10;;;;;;5046452;28;20029;-66
2023/02/28 18:02:01;;;;;;;2.33;1.70;;;3.40;80.20;;;;;;5045750;28;20504;-66
2023/02/28 18:04:26;;;;;;;2.40;1.73;;;3.40;80.50;;;;;;5046993;28;20025;-66
2023/02/28 18:06:53;;;;;;;1.92;1.70;;;3.40;80.80;;;;;;5045899;28;20528;-67
2023/02/28 18:09:22;;;;;;;2.53;1.85;;;3.30;80.60;;;;;;5045771;28;20025;-67
2023/02/28 18:11:52;;;;;;;2.42;1.80;;;3.30;80.60;;;;;;5046730;28;20478;-66
2023/02/28 18:14:19;;;;;;;3.58;2.42;;;3.30;80.70;;;;;;5044323;28;20022;-68
2023/02/28 18:16:45;;;;;;;2.58;2.17;;;3.30;81.70;;;;;;5047654;28;20013;-68
2023/02/28 18:19:16;;;;;;;2.50;1.90;;;3.20;81.20;;;;;;5045640;28;20116;-68
2023/02/28 18:21:43;;;;;;;6.10;2.88;;;3.20;81.60;;;;;;5046144;28;20164;-68
2023/02/28 18:24:09;;;;;;;5.90;2.40;;;3.10;81.80;;;;;;5047039;28;20017;-68
2023/02/28 18:26:36;;;;;;;4.55;2.80;;;3.00;82.10;;;;;;5046765;28;20099;-68
2023/02/28 18:29:02;;;;;;;5.28;2.72;;;3.00;82.40;;;;;;5045760;28;20025;-68
2023/02/28 18:31:28;;;;;;;4.03;2.58;;;2.90;82.60;;;;;;5045547;28;20032;-67
2023/02/28 18:33:54;;;;;;;4.00;2.65;;;2.80;82.70;;;;;;5045593;28;20025;-68
2023/02/28 18:36:20;;;;;;;5.35;2.58;;;2.80;83.10;;;;;;5045527;28;20386;-67
2023/02/28 18:38:47;;;;;;;4.72;2.83;;;2.70;83.10;;;;;;5034171;28;20116;-68
2023/02/28 18:41:13;;;;;;;4.45;2.65;;;2.60;83.20;;;;;;5032444;28;20025;-68
2023/02/28 18:43:39;;;;;;;5.65;2.97;;;2.60;83.50;;;;;;5032252;28;20462;-68
2023/02/28 18:46:10;;;;;;;4.15;2.65;;;2.50;83.70;;;;;;5033353;28;20037;-68
2023/02/28 18:48:36;;;;;;;8.18;4.10;;;2.50;83.90;;;;;;5031010;28;20026;-67
2023/02/28 18:51:18;;;;;;;5.13;3.30;;;2.40;84.00;;;;;;5031438;28;20029;-68
2023/02/28 18:53:45;;;;;;;5.38;3.58;;;2.40;84.60;;;;;;5032921;28;20022;-67
2023/02/28 18:56:13;;;;;;;5.00;3.20;;;2.40;84.70;;;;;;5032550;28;20022;-68
2023/02/28 18:58:39;;;;;;;7.18;3.63;;;2.40;84.80;;;;;;5032876;28;20474;-68
2023/02/28 19:01:17;;;;;;;8.32;4.35;;;2.40;84.90;;;;;;5031245;28;20047;-67
2023/02/28 19:03:44;;;;;;;6.45;3.47;;;2.20;83.70;;;;;;5030447;28;20385;-68
2023/02/28 19:06:10;;;;;;;6.15;3.50;;;2.20;83.90;;;;;;5030237;28;20622;-68
2023/02/28 19:08:36;;;;;;;6.55;3.35;;;2.10;83.60;;;;;;5032275;28;20064;-67
2023/02/28 19:11:09;;;;;;;4.15;2.92;;;2.00;83.60;;;;;;5032745;28;20048;-68
2023/02/28 19:13:36;;;;;;;4.35;2.80;;;1.90;84.00;;;;;;5032541;28;20414;-68
2023/02/28 19:16:03;;;;;;;5.25;3.05;;;1.80;84.20;;;;;;5031481;28;20009;-67
2023/02/28 19:18:29;;;;;;;5.80;3.30;;;1.70;84.40;;;;;;5033007;28;20501;-67
2023/02/28 19:20:54;;;;;;;5.75;3.03;;;1.70;84.80;;;;;;5032769;28;20017;-67
2023/02/28 19:23:20;;;;;;;4.78;3.10;;;1.60;85.10;;;;;;5032870;28;20038;-67
2023/02/28 19:25:46;;;;;;;6.32;3.25;;;1.50;85.30;;;;;;5031455;28;20065;-67
2023/02/28 19:28:12;;;;;;;4.28;3.30;;;1.50;85.60;;;;;;5031275;28;20022;-67
2023/02/28 19:30:38;;;;;;;4.88;3.97;;;1.50;86.00;;;;;;5031085;28;20120;-67
2023/02/28 19:33:04;;;;;;;9.45;4.18;;;1.40;85.50;;;;;;5032179;28;20100;-66
2023/02/28 19:35:29;;;;;;;6.60;3.97;;;1.40;85.10;;;;;;5032627;28;20030;-66
2023/02/28 19:37:55;;;;;;;7.63;4.57;;;1.30;85.30;;;;;;5032931;28;20021;-66
2023/02/28 19:40:20;;;;;;;8.93;5.32;;;1.10;85.80;;;;;;5032779;28;20575;-67
2023/02/28 19:42:46;;;;;;;10.02;6.35;;;1.00;86.70;;;;;;5032686;28;20045;-66
2023/02/28 19:45:13;;;;;;;8.95;5.47;;;0.90;87.60;;;;;;5031866;28;20029;-67
2023/02/28 19:47:40;;;;;;;7.55;4.95;;;0.80;88.50;;;;;;5031931;28;20358;-67
2023/02/28 19:50:06;;;;;;;9.80;5.97;;;0.70;89.30;;;;;;5031395;28;20026;-66
2023/02/28 19:52:33;;;;;;;10.10;5.90;;;0.60;90.10;;;;;;5032334;28;20029;-67
2023/02/28 19:54:59;;;;;;;9.70;5.95;;;0.50;90.50;;;;;;5032927;28;20025;-68
2023/02/28 19:57:24;;;;;;;10.43;6.25;;;0.50;91.00;;;;;;5032586;28;20021;-68
2023/02/28 19:59:50;;;;;;;8.18;4.95;;;0.40;91.40;;;;;;5032150;28;20017;-68
2023/02/28 20:02:17;;;;;;;7.43;4.50;;;0.30;91.90;;;;;;5031723;28;20550;-68
